sensor_id;sensor_type;location;lat;lon;timestamp;P1;durP1;ratioP1;P2;durP2;ratioP2
1446;SDS011;717;51.522;7.266;2023-05-27T00:00:02;11.85;;;4.22;;
1446;SDS011;717;51.522;7.266;2023-05-27T00:02:32;12.10;;;4.13;;
1446;SDS011;717;51.522;7.266;2023-05-27T00:05:02;7.40;;;3.75;;
1446;SDS011;717;51.522;7.266;2023-05-27T00:07:33;8.60;;;3.55;;
1446;SDS011;717;51.522;7.266;2023-05-27T00:10:02;7.90;;;3.95;;
1446;SDS011;717;51.522;7.266;2023-05-27T00:12:31;13.65;;;3.78;;
1446;SDS011;717;51.522;7.266;2023-05-27T00:15:00;10.68;;;4.25;;
1446;SDS011;717;51.522;7.266;2023-05-27T00:17:28;10.77;;;3.72;;
1446;SDS011;717;51.522;7.266;2023-05-27T00:19:58;12.18;;;4.32;;
1446;SDS011;717;51.522;7.266;2023-05-27T00:22:35;15.57;;;4.40;;
1446;SDS011;717;51.522;7.266;2023-05-27T00:25:04;9.65;;;3.67;;
1446;SDS011;717;51.522;7.266;2023-05-27T00:27:33;12.73;;;3.97;;
1446;SDS011;717;51.522;7.266;2023-05-27T00:30:02;11.55;;;3.72;;
1446;SDS011;717;51.522;7.266;2023-05-27T00:32:32;10.93;;;4.20;;
1446;SDS011;717;51.522;7.266;2023-05-27T00:35:01;12.77;;;4.15;;
1446;SDS011;717;51.522;7.266;2023-05-27T00:37:29;10.98;;;4.00;;
1446;SDS011;717;51.522;7.266;2023-05-27T00:40:00;10.77;;;4.13;;
1446;SDS011;717;51.522;7.266;2023-05-27T00:42:30;10.95;;;3.80;;
1446;SDS011;717;51.522;7.266;2023-05-27T00:44:58;10.75;;;3.80;;
1446;SDS011;717;51.522;7.266;2023-05-27T00:47:27;11.25;;;4.10;;
1446;SDS011;717;51.522;7.266;2023-05-27T00:49:59;11.57;;;4.03;;
1446;SDS011;717;51.522;7.266;2023-05-27T00:52:28;8.93;;;3.92;;
1446;SDS011;717;51.522;7.266;2023-05-27T00:54:57;8.73;;;3.83;;
1446;SDS011;717;51.522;7.266;2023-05-27T00:57:29;10.50;;;4.15;;
1446;SDS011;717;51.522;7.266;2023-05-27T00:59:58;9.70;;;3.72;;
1446;SDS011;717;51.522;7.266;2023-05-27T01:02:27;11.35;;;4.00;;
1446;SDS011;717;51.522;7.266;2023-05-27T01:04:55;11.70;;;4.18;;
1446;SDS011;717;51.522;7.266;2023-05-27T01:07:25;9.75;;;4.10;;
1446;SDS011;717;51.522;7.266;2023-05-27T01:10:04;8.68;;;4.10;;
1446;SDS011;717;51.522;7.266;2023-05-27T01:12:42;10.55;;;4.90;;
1446;SDS011;717;51.522;7.266;2023-05-27T01:15:16;8.23;;;3.60;;
1446;SDS011;717;51.522;7.266;2023-05-27T01:17:46;12.05;;;3.88;;
1446;SDS011;717;51.522;7.266;2023-05-27T01:20:17;9.32;;;4.28;;
1446;SDS011;717;51.522;7.266;2023-05-27T01:22:49;10.43;;;3.90;;
1446;SDS011;717;51.522;7.266;2023-05-27T01:25:19;11.35;;;4.03;;
1446;SDS011;717;51.522;7.266;2023-05-27T01:27:47;9.60;;;3.60;;
1446;SDS011;717;51.522;7.266;2023-05-27T01:30:18;10.10;;;3.60;;
1446;SDS011;717;51.522;7.266;2023-05-27T01:32:48;11.18;;;3.97;;
1446;SDS011;717;51.522;7.266;2023-05-27T01:35:22;11.25;;;3.58;;
1446;SDS011;717;51.522;7.266;2023-05-27T01:37:58;15.05;;;3.83;;
1446;SDS011;717;51.522;7.266;2023-05-27T01:40:30;8.30;;;3.47;;
1446;SDS011;717;51.522;7.266;2023-05-27T01:43:01;8.75;;;3.63;;
1446;SDS011;717;51.522;7.266;2023-05-27T01:45:30;9.60;;;3.70;;
1446;SDS011;717;51.522;7.266;2023-05-27T01:47:59;8.13;;;3.08;;
1446;SDS011;717;51.522;7.266;2023-05-27T01:50:28;9.00;;;3.28;;
1446;SDS011;717;51.522;7.266;2023-05-27T01:53:00;11.32;;;3.60;;
1446;SDS011;717;51.522;7.266;2023-05-27T01:55:31;8.98;;;4.07;;
1446;SDS011;717;51.522;7.266;2023-05-27T01:57:59;11.00;;;4.03;;
1446;SDS011;717;51.522;7.266;2023-05-27T02:00:28;9.93;;;3.85;;
1446;SDS011;717;51.522;7.266;2023-05-27T02:02:56;8.48;;;3.83;;
1446;SDS011;717;51.522;7.266;2023-05-27T02:05:25;8.13;;;3.30;;
1446;SDS011;717;51.522;7.266;2023-05-27T02:07:54;7.85;;;3.35;;
1446;SDS011;717;51.522;7.266;2023-05-27T02:10:25;9.82;;;3.50;;
1446;SDS011;717;51.522;7.266;2023-05-27T02:12:53;8.15;;;3.22;;
1446;SDS011;717;51.522;7.266;2023-05-27T02:15:22;9.85;;;3.80;;
1446;SDS011;717;51.522;7.266;2023-05-27T02:17:51;8.10;;;3.33;;
1446;SDS011;717;51.522;7.266;2023-05-27T02:20:21;9.25;;;3.30;;
1446;SDS011;717;51.522;7.266;2023-05-27T02:22:50;9.20;;;3.17;;
1446;SDS011;717;51.522;7.266;2023-05-27T02:25:19;9.65;;;3.47;;
1446;SDS011;717;51.522;7.266;2023-05-27T02:27:50;10.30;;;3.95;;
1446;SDS011;717;51.522;7.266;2023-05-27T02:30:20;10.65;;;3.45;;
1446;SDS011;717;51.522;7.266;2023-05-27T02:32:49;9.77;;;3.40;;
1446;SDS011;717;51.522;7.266;2023-05-27T02:35:17;8.45;;;3.28;;
1446;SDS011;717;51.522;7.266;2023-05-27T02:37:46;11.65;;;4.00;;
1446;SDS011;717;51.522;7.266;2023-05-27T02:40:22;11.77;;;3.60;;
1446;SDS011;717;51.522;7.266;2023-05-27T02:42:54;11.63;;;3.40;;
1446;SDS011;717;51.522;7.266;2023-05-27T02:45:23;11.68;;;3.70;;
1446;SDS011;717;51.522;7.266;2023-05-27T02:47:52;9.85;;;3.28;;
1446;SDS011;717;51.522;7.266;2023-05-27T02:50:21;10.10;;;3.47;;
1446;SDS011;717;51.522;7.266;2023-05-27T02:52:50;8.07;;;3.40;;
1446;SDS011;717;51.522;7.266;2023-05-27T02:55:19;9.55;;;3.63;;
1446;SDS011;717;51.522;7.266;2023-05-27T02:57:47;8.98;;;3.80;;
1446;SDS011;717;51.522;7.266;2023-05-27T03:00:19;8.90;;;3.53;;
1446;SDS011;717;51.522;7.266;2023-05-27T03:02:48;13.85;;;3.83;;
1446;SDS011;717;51.522;7.266;2023-05-27T03:05:16;12.13;;;3.97;;
1446;SDS011;717;51.522;7.266;2023-05-27T03:07:45;11.65;;;3.95;;
1446;SDS011;717;51.522;7.266;2023-05-27T03:10:13;9.70;;;3.92;;
1446;SDS011;717;51.522;7.266;2023-05-27T03:12:42;11.73;;;4.10;;
1446;SDS011;717;51.522;7.266;2023-05-27T03:15:11;10.25;;;3.92;;
1446;SDS011;717;51.522;7.266;2023-05-27T03:17:42;11.93;;;4.18;;
1446;SDS011;717;51.522;7.266;2023-05-27T03:20:11;9.77;;;3.60;;
1446;SDS011;717;51.522;7.266;2023-05-27T03:22:41;10.65;;;3.90;;
1446;SDS011;717;51.522;7.266;2023-05-27T03:25:10;8.65;;;3.90;;
1446;SDS011;717;51.522;7.266;2023-05-27T03:27:39;11.00;;;3.67;;
1446;SDS011;717;51.522;7.266;2023-05-27T03:30:08;10.23;;;3.53;;
1446;SDS011;717;51.522;7.266;2023-05-27T03:32:42;11.27;;;4.10;;
1446;SDS011;717;51.522;7.266;2023-05-27T03:35:11;7.90;;;3.63;;
1446;SDS011;717;51.522;7.266;2023-05-27T03:37:39;10.45;;;4.15;;
1446;SDS011;717;51.522;7.266;2023-05-27T03:40:08;12.63;;;3.78;;
1446;SDS011;717;51.522;7.266;2023-05-27T03:42:38;11.00;;;4.32;;
1446;SDS011;717;51.522;7.266;2023-05-27T03:45:07;9.63;;;4.05;;
1446;SDS011;717;51.522;7.266;2023-05-27T03:47:36;9.02;;;3.70;;
1446;SDS011;717;51.522;7.266;2023-05-27T03:50:08;8.80;;;3.70;;
1446;SDS011;717;51.522;7.266;2023-05-27T03:52:37;12.25;;;3.92;;
1446;SDS011;717;51.522;7.266;2023-05-27T03:55:06;7.80;;;3.83;;
1446;SDS011;717;51.522;7.266;2023-05-27T03:57:35;9.43;;;3.75;;
1446;SDS011;717;51.522;7.266;2023-05-27T04:00:04;9.38;;;3.92;;
1446;SDS011;717;51.522;7.266;2023-05-27T04:02:36;8.38;;;3.88;;
1446;SDS011;717;51.522;7.266;2023-05-27T04:05:08;12.35;;;4.43;;
1446;SDS011;717;51.522;7.266;2023-05-27T04:07:37;11.07;;;4.40;;
1446;SDS011;717;51.522;7.266;2023-05-27T04:10:06;8.30;;;3.97;;
1446;SDS011;717;51.522;7.266;2023-05-27T04:12:35;7.63;;;4.03;;
1446;SDS011;717;51.522;7.266;2023-05-27T04:15:04;8.93;;;3.90;;
1446;SDS011;717;51.522;7.266;2023-05-27T04:17:33;9.73;;;3.65;;
1446;SDS011;717;51.522;7.266;2023-05-27T04:20:02;14.60;;;4.22;;
1446;SDS011;717;51.522;7.266;2023-05-27T04:22:40;11.65;;;3.78;;
1446;SDS011;717;51.522;7.266;2023-05-27T04:25:10;9.50;;;4.32;;
1446;SDS011;717;51.522;7.266;2023-05-27T04:27:38;10.85;;;4.10;;
1446;SDS011;717;51.522;7.266;2023-05-27T04:30:07;10.57;;;3.83;;
1446;SDS011;717;51.522;7.266;2023-05-27T04:32:37;8.65;;;4.07;;
1446;SDS011;717;51.522;7.266;2023-05-27T04:35:06;11.20;;;4.47;;
1446;SDS011;717;51.522;7.266;2023-05-27T04:37:36;10.32;;;4.18;;
1446;SDS011;717;51.522;7.266;2023-05-27T04:40:08;6.32;;;3.53;;
1446;SDS011;717;51.522;7.266;2023-05-27T04:42:38;10.43;;;3.70;;
1446;SDS011;717;51.522;7.266;2023-05-27T04:45:09;12.90;;;4.10;;
1446;SDS011;717;51.522;7.266;2023-05-27T04:47:39;10.27;;;4.07;;
1446;SDS011;717;51.522;7.266;2023-05-27T04:50:08;10.13;;;4.13;;
1446;SDS011;717;51.522;7.266;2023-05-27T04:52:38;8.50;;;3.72;;
1446;SDS011;717;51.522;7.266;2023-05-27T04:55:10;12.00;;;4.13;;
1446;SDS011;717;51.522;7.266;2023-05-27T04:57:38;11.25;;;4.15;;
1446;SDS011;717;51.522;7.266;2023-05-27T05:00:09;10.52;;;3.83;;
1446;SDS011;717;51.522;7.266;2023-05-27T05:03:01;9.32;;;4.15;;
1446;SDS011;717;51.522;7.266;2023-05-27T05:05:31;11.35;;;4.13;;
1446;SDS011;717;51.522;7.266;2023-05-27T05:07:59;15.02;;;4.82;;
1446;SDS011;717;51.522;7.266;2023-05-27T05:10:32;9.60;;;3.80;;
1446;SDS011;717;51.522;7.266;2023-05-27T05:13:00;11.95;;;4.50;;
1446;SDS011;717;51.522;7.266;2023-05-27T05:15:29;13.27;;;5.13;;
1446;SDS011;717;51.522;7.266;2023-05-27T05:17:58;10.88;;;4.65;;
1446;SDS011;717;51.522;7.266;2023-05-27T05:20:26;11.43;;;5.30;;
1446;SDS011;717;51.522;7.266;2023-05-27T05:22:55;15.60;;;4.97;;
1446;SDS011;717;51.522;7.266;2023-05-27T05:25:24;14.75;;;4.60;;
1446;SDS011;717;51.522;7.266;2023-05-27T05:27:57;12.90;;;3.97;;
1446;SDS011;717;51.522;7.266;2023-05-27T05:30:26;10.13;;;4.47;;
1446;SDS011;717;51.522;7.266;2023-05-27T05:32:55;11.18;;;4.88;;
1446;SDS011;717;51.522;7.266;2023-05-27T05:35:23;8.52;;;4.30;;
1446;SDS011;717;51.522;7.266;2023-05-27T05:37:52;10.45;;;4.18;;
1446;SDS011;717;51.522;7.266;2023-05-27T05:40:21;8.50;;;4.93;;
1446;SDS011;717;51.522;7.266;2023-05-27T05:42:50;10.20;;;4.43;;
1446;SDS011;717;51.522;7.266;2023-05-27T05:45:21;12.93;;;5.03;;
1446;SDS011;717;51.522;7.266;2023-05-27T05:47:50;10.10;;;4.65;;
1446;SDS011;717;51.522;7.266;2023-05-27T05:50:19;10.23;;;4.50;;
1446;SDS011;717;51.522;7.266;2023-05-27T05:52:47;10.98;;;4.55;;
1446;SDS011;717;51.522;7.266;2023-05-27T05:55:16;11.18;;;4.22;;
1446;SDS011;717;51.522;7.266;2023-05-27T05:57:44;13.88;;;4.20;;
1446;SDS011;717;51.522;7.266;2023-05-27T06:00:13;12.35;;;4.45;;
1446;SDS011;717;51.522;7.266;2023-05-27T06:02:46;10.50;;;4.85;;
1446;SDS011;717;51.522;7.266;2023-05-27T06:05:14;12.73;;;4.50;;
1446;SDS011;717;51.522;7.266;2023-05-27T06:07:43;14.77;;;4.93;;
1446;SDS011;717;51.522;7.266;2023-05-27T06:10:11;10.95;;;4.43;;
1446;SDS011;717;51.522;7.266;2023-05-27T06:12:41;10.20;;;4.68;;
1446;SDS011;717;51.522;7.266;2023-05-27T06:15:10;11.02;;;4.20;;
1446;SDS011;717;51.522;7.266;2023-05-27T06:17:39;10.30;;;4.60;;
1446;SDS011;717;51.522;7.266;2023-05-27T06:20:10;10.98;;;4.72;;
1446;SDS011;717;51.522;7.266;2023-05-27T06:22:39;13.57;;;4.97;;
1446;SDS011;717;51.522;7.266;2023-05-27T06:25:08;11.35;;;4.53;;
1446;SDS011;717;51.522;7.266;2023-05-27T06:27:36;12.55;;;4.80;;
1446;SDS011;717;51.522;7.266;2023-05-27T06:30:05;14.82;;;5.45;;
1446;SDS011;717;51.522;7.266;2023-05-27T06:32:35;14.38;;;4.38;;
1446;SDS011;717;51.522;7.266;2023-05-27T06:35:04;13.07;;;5.35;;
1446;SDS011;717;51.522;7.266;2023-05-27T06:37:36;11.15;;;4.72;;
1446;SDS011;717;51.522;7.266;2023-05-27T06:40:05;13.80;;;5.38;;
1446;SDS011;717;51.522;7.266;2023-05-27T06:42:34;10.95;;;4.82;;
1446;SDS011;717;51.522;7.266;2023-05-27T06:45:04;14.90;;;4.82;;
1446;SDS011;717;51.522;7.266;2023-05-27T06:47:34;14.35;;;4.85;;
1446;SDS011;717;51.522;7.266;2023-05-27T06:50:02;9.93;;;4.72;;
1446;SDS011;717;51.522;7.266;2023-05-27T06:52:31;12.50;;;5.25;;
1446;SDS011;717;51.522;7.266;2023-05-27T06:55:02;12.18;;;5.15;;
1446;SDS011;717;51.522;7.266;2023-05-27T06:57:31;12.68;;;5.00;;
1446;SDS011;717;51.522;7.266;2023-05-27T07:00:00;14.23;;;5.07;;
1446;SDS011;717;51.522;7.266;2023-05-27T07:02:30;13.60;;;5.13;;
1446;SDS011;717;51.522;7.266;2023-05-27T07:04:58;10.15;;;5.07;;
1446;SDS011;717;51.522;7.266;2023-05-27T07:07:27;15.05;;;4.75;;
1446;SDS011;717;51.522;7.266;2023-05-27T07:09:56;16.40;;;5.35;;
1446;SDS011;717;51.522;7.266;2023-05-27T07:12:27;14.35;;;5.70;;
1446;SDS011;717;51.522;7.266;2023-05-27T07:14:55;10.35;;;5.15;;
1446;SDS011;717;51.522;7.266;2023-05-27T07:17:24;9.55;;;4.55;;
1446;SDS011;717;51.522;7.266;2023-05-27T07:19:53;11.52;;;4.45;;
1446;SDS011;717;51.522;7.266;2023-05-27T07:22:21;12.95;;;4.72;;
1446;SDS011;717;51.522;7.266;2023-05-27T07:24:50;11.73;;;4.57;;
1446;SDS011;717;51.522;7.266;2023-05-27T07:27:19;17.10;;;5.03;;
1446;SDS011;717;51.522;7.266;2023-05-27T07:29:50;11.02;;;5.40;;
1446;SDS011;717;51.522;7.266;2023-05-27T07:32:19;15.68;;;5.03;;
1446;SDS011;717;51.522;7.266;2023-05-27T07:34:48;11.80;;;5.55;;
1446;SDS011;717;51.522;7.266;2023-05-27T07:37:17;14.18;;;6.03;;
1446;SDS011;717;51.522;7.266;2023-05-27T07:39:47;14.52;;;5.10;;
1446;SDS011;717;51.522;7.266;2023-05-27T07:42:16;11.57;;;5.00;;
1446;SDS011;717;51.522;7.266;2023-05-27T07:44:45;10.80;;;4.93;;
1446;SDS011;717;51.522;7.266;2023-05-27T07:47:16;9.93;;;4.50;;
1446;SDS011;717;51.522;7.266;2023-05-27T07:49:45;13.60;;;5.45;;
1446;SDS011;717;51.522;7.266;2023-05-27T07:52:13;12.18;;;5.32;;
1446;SDS011;717;51.522;7.266;2023-05-27T07:54:42;12.63;;;5.20;;
1446;SDS011;717;51.522;7.266;2023-05-27T07:57:11;11.38;;;4.82;;
1446;SDS011;717;51.522;7.266;2023-05-27T07:59:41;11.13;;;5.13;;
1446;SDS011;717;51.522;7.266;2023-05-27T08:02:10;10.15;;;4.55;;
1446;SDS011;717;51.522;7.266;2023-05-27T08:04:41;14.40;;;5.20;;
1446;SDS011;717;51.522;7.266;2023-05-27T08:07:10;9.75;;;4.88;;
1446;SDS011;717;51.522;7.266;2023-05-27T08:09:38;9.70;;;4.95;;
1446;SDS011;717;51.522;7.266;2023-05-27T08:12:07;9.85;;;5.05;;
1446;SDS011;717;51.522;7.266;2023-05-27T08:14:35;11.30;;;5.00;;
1446;SDS011;717;51.522;7.266;2023-05-27T08:17:04;11.02;;;5.05;;
1446;SDS011;717;51.522;7.266;2023-05-27T08:19:32;14.65;;;6.05;;
1446;SDS011;717;51.522;7.266;2023-05-27T08:22:04;12.45;;;5.20;;
1446;SDS011;717;51.522;7.266;2023-05-27T08:24:33;9.93;;;4.70;;
1446;SDS011;717;51.522;7.266;2023-05-27T08:27:02;12.73;;;5.07;;
1446;SDS011;717;51.522;7.266;2023-05-27T08:29:31;11.45;;;4.85;;
1446;SDS011;717;51.522;7.266;2023-05-27T08:32:01;10.50;;;4.78;;
1446;SDS011;717;51.522;7.266;2023-05-27T08:34:30;13.10;;;5.28;;
1446;SDS011;717;51.522;7.266;2023-05-27T08:36:58;11.50;;;4.82;;
1446;SDS011;717;51.522;7.266;2023-05-27T08:39:31;13.27;;;5.03;;
1446;SDS011;717;51.522;7.266;2023-05-27T08:42:00;13.95;;;5.28;;
1446;SDS011;717;51.522;7.266;2023-05-27T08:44:29;11.68;;;4.93;;
1446;SDS011;717;51.522;7.266;2023-05-27T08:46:58;11.40;;;5.80;;
1446;SDS011;717;51.522;7.266;2023-05-27T08:49:28;10.38;;;4.45;;
1446;SDS011;717;51.522;7.266;2023-05-27T08:51:57;11.98;;;4.82;;
1446;SDS011;717;51.522;7.266;2023-05-27T08:54:31;10.30;;;4.45;;
1446;SDS011;717;51.522;7.266;2023-05-27T08:56:59;10.52;;;4.53;;
1446;SDS011;717;51.522;7.266;2023-05-27T08:59:32;11.15;;;4.70;;
1446;SDS011;717;51.522;7.266;2023-05-27T09:02:00;9.43;;;4.78;;
1446;SDS011;717;51.522;7.266;2023-05-27T09:04:30;10.77;;;4.65;;
1446;SDS011;717;51.522;7.266;2023-05-27T09:06:58;9.60;;;4.40;;
1446;SDS011;717;51.522;7.266;2023-05-27T09:09:27;13.43;;;4.57;;
1446;SDS011;717;51.522;7.266;2023-05-27T09:11:59;10.77;;;4.90;;
1446;SDS011;717;51.522;7.266;2023-05-27T09:14:28;10.70;;;4.35;;
1446;SDS011;717;51.522;7.266;2023-05-27T09:17:04;10.98;;;5.32;;
1446;SDS011;717;51.522;7.266;2023-05-27T09:19:33;10.85;;;4.28;;
1446;SDS011;717;51.522;7.266;2023-05-27T09:22:02;10.82;;;4.20;;
1446;SDS011;717;51.522;7.266;2023-05-27T09:24:34;13.73;;;4.82;;
1446;SDS011;717;51.522;7.266;2023-05-27T09:27:03;12.63;;;4.40;;
1446;SDS011;717;51.522;7.266;2023-05-27T09:29:32;9.95;;;4.15;;
1446;SDS011;717;51.522;7.266;2023-05-27T09:32:05;12.52;;;5.00;;
1446;SDS011;717;51.522;7.266;2023-05-27T09:34:37;7.65;;;3.70;;
1446;SDS011;717;51.522;7.266;2023-05-27T09:37:11;10.57;;;3.88;;
1446;SDS011;717;51.522;7.266;2023-05-27T09:39:44;11.05;;;3.90;;
1446;SDS011;717;51.522;7.266;2023-05-27T09:42:13;9.57;;;3.75;;
1446;SDS011;717;51.522;7.266;2023-05-27T09:44:42;9.15;;;4.13;;
1446;SDS011;717;51.522;7.266;2023-05-27T09:47:16;9.45;;;3.58;;
1446;SDS011;717;51.522;7.266;2023-05-27T09:49:45;8.63;;;4.05;;
1446;SDS011;717;51.522;7.266;2023-05-27T09:52:20;10.35;;;3.65;;
1446;SDS011;717;51.522;7.266;2023-05-27T09:54:51;10.68;;;3.78;;
1446;SDS011;717;51.522;7.266;2023-05-27T09:57:20;10.70;;;3.65;;
1446;SDS011;717;51.522;7.266;2023-05-27T09:59:50;11.95;;;3.78;;
1446;SDS011;717;51.522;7.266;2023-05-27T10:02:19;7.60;;;3.55;;
1446;SDS011;717;51.522;7.266;2023-05-27T10:04:49;11.30;;;4.03;;
1446;SDS011;717;51.522;7.266;2023-05-27T10:07:18;8.63;;;3.28;;
1446;SDS011;717;51.522;7.266;2023-05-27T10:09:51;11.45;;;3.58;;
1446;SDS011;717;51.522;7.266;2023-05-27T10:12:20;9.70;;;3.85;;
1446;SDS011;717;51.522;7.266;2023-05-27T10:14:49;9.30;;;3.20;;
1446;SDS011;717;51.522;7.266;2023-05-27T10:17:18;12.23;;;4.47;;
1446;SDS011;717;51.522;7.266;2023-05-27T10:19:53;9.15;;;3.45;;
1446;SDS011;717;51.522;7.266;2023-05-27T10:22:22;7.95;;;3.85;;
1446;SDS011;717;51.522;7.266;2023-05-27T10:24:54;9.98;;;3.58;;
1446;SDS011;717;51.522;7.266;2023-05-27T10:27:22;12.07;;;3.75;;
1446;SDS011;717;51.522;7.266;2023-05-27T10:29:57;9.82;;;3.63;;
1446;SDS011;717;51.522;7.266;2023-05-27T10:32:26;9.80;;;3.38;;
1446;SDS011;717;51.522;7.266;2023-05-27T10:34:55;9.57;;;3.55;;
1446;SDS011;717;51.522;7.266;2023-05-27T10:37:27;9.07;;;3.40;;
1446;SDS011;717;51.522;7.266;2023-05-27T10:40:05;7.07;;;2.97;;
1446;SDS011;717;51.522;7.266;2023-05-27T10:42:35;7.82;;;3.40;;
1446;SDS011;717;51.522;7.266;2023-05-27T10:45:04;7.22;;;2.95;;
1446;SDS011;717;51.522;7.266;2023-05-27T10:47:35;10.30;;;3.63;;
1446;SDS011;717;51.522;7.266;2023-05-27T10:50:11;10.27;;;3.42;;
1446;SDS011;717;51.522;7.266;2023-05-27T10:52:41;9.25;;;3.67;;
1446;SDS011;717;51.522;7.266;2023-05-27T10:55:12;12.32;;;4.10;;
1446;SDS011;717;51.522;7.266;2023-05-27T10:57:41;9.48;;;3.55;;
1446;SDS011;717;51.522;7.266;2023-05-27T11:00:10;8.50;;;3.30;;
1446;SDS011;717;51.522;7.266;2023-05-27T11:02:46;8.38;;;3.30;;
1446;SDS011;717;51.522;7.266;2023-05-27T11:05:15;9.98;;;4.43;;
1446;SDS011;717;51.522;7.266;2023-05-27T11:07:48;9.88;;;3.90;;
1446;SDS011;717;51.522;7.266;2023-05-27T11:10:19;7.30;;;3.13;;
1446;SDS011;717;51.522;7.266;2023-05-27T11:12:47;6.68;;;3.28;;
1446;SDS011;717;51.522;7.266;2023-05-27T11:15:18;8.18;;;3.78;;
1446;SDS011;717;51.522;7.266;2023-05-27T11:17:47;8.80;;;3.60;;
1446;SDS011;717;51.522;7.266;2023-05-27T11:20:15;9.27;;;3.47;;
1446;SDS011;717;51.522;7.266;2023-05-27T11:22:48;8.15;;;3.45;;
1446;SDS011;717;51.522;7.266;2023-05-27T11:25:20;8.55;;;3.15;;
1446;SDS011;717;51.522;7.266;2023-05-27T11:27:49;8.60;;;3.60;;
1446;SDS011;717;51.522;7.266;2023-05-27T11:30:18;8.75;;;3.63;;
1446;SDS011;717;51.522;7.266;2023-05-27T11:32:52;8.27;;;3.75;;
1446;SDS011;717;51.522;7.266;2023-05-27T11:35:29;10.50;;;4.25;;
1446;SDS011;717;51.522;7.266;2023-05-27T11:37:57;10.82;;;4.47;;
1446;SDS011;717;51.522;7.266;2023-05-27T11:40:29;9.85;;;4.43;;
1446;SDS011;717;51.522;7.266;2023-05-27T11:43:02;10.13;;;3.72;;
1446;SDS011;717;51.522;7.266;2023-05-27T11:45:34;8.05;;;3.60;;
1446;SDS011;717;51.522;7.266;2023-05-27T11:48:03;9.75;;;3.40;;
1446;SDS011;717;51.522;7.266;2023-05-27T11:50:32;8.10;;;3.33;;
1446;SDS011;717;51.522;7.266;2023-05-27T11:53:02;9.20;;;3.22;;
1446;SDS011;717;51.522;7.266;2023-05-27T11:55:34;8.45;;;3.30;;
1446;SDS011;717;51.522;7.266;2023-05-27T11:58:02;10.38;;;3.38;;
1446;SDS011;717;51.522;7.266;2023-05-27T12:00:31;8.18;;;3.50;;
1446;SDS011;717;51.522;7.266;2023-05-27T12:02:59;9.15;;;3.80;;
1446;SDS011;717;51.522;7.266;2023-05-27T12:05:28;6.90;;;3.20;;
1446;SDS011;717;51.522;7.266;2023-05-27T12:07:57;13.02;;;4.82;;
1446;SDS011;717;51.522;7.266;2023-05-27T12:10:25;7.97;;;3.33;;
1446;SDS011;717;51.522;7.266;2023-05-27T12:13:04;8.63;;;3.35;;
1446;SDS011;717;51.522;7.266;2023-05-27T12:15:33;8.43;;;3.25;;
1446;SDS011;717;51.522;7.266;2023-05-27T12:18:01;13.40;;;4.65;;
1446;SDS011;717;51.522;7.266;2023-05-27T12:20:30;7.03;;;3.10;;
1446;SDS011;717;51.522;7.266;2023-05-27T12:22:58;6.90;;;3.13;;
1446;SDS011;717;51.522;7.266;2023-05-27T12:25:27;7.90;;;3.17;;
1446;SDS011;717;51.522;7.266;2023-05-27T12:27:56;9.07;;;3.00;;
1446;SDS011;717;51.522;7.266;2023-05-27T12:30:27;12.25;;;5.05;;
1446;SDS011;717;51.522;7.266;2023-05-27T12:32:56;6.72;;;3.00;;
1446;SDS011;717;51.522;7.266;2023-05-27T12:35:24;10.05;;;4.00;;
1446;SDS011;717;51.522;7.266;2023-05-27T12:37:53;8.65;;;3.70;;
1446;SDS011;717;51.522;7.266;2023-05-27T12:40:22;7.68;;;3.20;;
1446;SDS011;717;51.522;7.266;2023-05-27T12:42:50;8.35;;;3.25;;
1446;SDS011;717;51.522;7.266;2023-05-27T12:45:19;7.75;;;3.10;;
1446;SDS011;717;51.522;7.266;2023-05-27T12:47:52;7.00;;;3.55;;
1446;SDS011;717;51.522;7.266;2023-05-27T12:50:21;9.27;;;3.60;;
1446;SDS011;717;51.522;7.266;2023-05-27T12:52:49;6.10;;;3.67;;
1446;SDS011;717;51.522;7.266;2023-05-27T12:55:19;6.13;;;3.35;;
1446;SDS011;717;51.522;7.266;2023-05-27T12:57:50;7.65;;;3.30;;
1446;SDS011;717;51.522;7.266;2023-05-27T13:00:19;12.60;;;3.72;;
1446;SDS011;717;51.522;7.266;2023-05-27T13:02:51;8.68;;;3.33;;
1446;SDS011;717;51.522;7.266;2023-05-27T13:05:20;5.30;;;3.05;;
1446;SDS011;717;51.522;7.266;2023-05-27T13:07:52;7.72;;;3.40;;
1446;SDS011;717;51.522;7.266;2023-05-27T13:10:23;9.18;;;3.25;;
1446;SDS011;717;51.522;7.266;2023-05-27T13:12:51;5.90;;;3.53;;
1446;SDS011;717;51.522;7.266;2023-05-27T13:15:20;8.52;;;3.05;;
1446;SDS011;717;51.522;7.266;2023-05-27T13:17:52;6.28;;;3.30;;
1446;SDS011;717;51.522;7.266;2023-05-27T13:20:21;7.07;;;3.20;;
1446;SDS011;717;51.522;7.266;2023-05-27T13:22:53;6.78;;;3.08;;
1446;SDS011;717;51.522;7.266;2023-05-27T13:25:25;6.43;;;2.90;;
1446;SDS011;717;51.522;7.266;2023-05-27T13:27:54;8.73;;;2.95;;
1446;SDS011;717;51.522;7.266;2023-05-27T13:30:23;6.90;;;3.40;;
1446;SDS011;717;51.522;7.266;2023-05-27T13:32:54;7.68;;;3.30;;
1446;SDS011;717;51.522;7.266;2023-05-27T13:35:23;6.95;;;3.47;;
1446;SDS011;717;51.522;7.266;2023-05-27T13:37:52;8.48;;;3.70;;
1446;SDS011;717;51.522;7.266;2023-05-27T13:40:20;8.85;;;3.17;;
1446;SDS011;717;51.522;7.266;2023-05-27T13:42:49;7.90;;;3.55;;
1446;SDS011;717;51.522;7.266;2023-05-27T13:45:20;6.63;;;3.03;;
1446;SDS011;717;51.522;7.266;2023-05-27T13:47:48;7.30;;;3.60;;
1446;SDS011;717;51.522;7.266;2023-05-27T13:50:20;8.52;;;3.45;;
1446;SDS011;717;51.522;7.266;2023-05-27T13:52:49;7.43;;;3.15;;
1446;SDS011;717;51.522;7.266;2023-05-27T13:55:17;6.88;;;3.20;;
1446;SDS011;717;51.522;7.266;2023-05-27T13:57:46;7.05;;;2.67;;
1446;SDS011;717;51.522;7.266;2023-05-27T14:00:15;6.03;;;3.03;;
1446;SDS011;717;51.522;7.266;2023-05-27T14:02:44;7.75;;;3.25;;
1446;SDS011;717;51.522;7.266;2023-05-27T14:05:12;7.03;;;3.17;;
1446;SDS011;717;51.522;7.266;2023-05-27T14:07:45;8.10;;;3.08;;
1446;SDS011;717;51.522;7.266;2023-05-27T14:10:14;6.22;;;2.75;;
1446;SDS011;717;51.522;7.266;2023-05-27T14:12:43;5.63;;;3.10;;
1446;SDS011;717;51.522;7.266;2023-05-27T14:15:12;7.50;;;3.10;;
1446;SDS011;717;51.522;7.266;2023-05-27T14:17:40;9.73;;;2.92;;
1446;SDS011;717;51.522;7.266;2023-05-27T14:20:09;6.38;;;3.05;;
1446;SDS011;717;51.522;7.266;2023-05-27T14:22:39;5.93;;;3.53;;
1446;SDS011;717;51.522;7.266;2023-05-27T14:25:11;9.25;;;3.30;;
1446;SDS011;717;51.522;7.266;2023-05-27T14:27:40;6.18;;;3.60;;
1446;SDS011;717;51.522;7.266;2023-05-27T14:30:09;5.63;;;3.10;;
1446;SDS011;717;51.522;7.266;2023-05-27T14:32:37;7.10;;;3.03;;
1446;SDS011;717;51.522;7.266;2023-05-27T14:35:06;6.68;;;3.00;;
1446;SDS011;717;51.522;7.266;2023-05-27T14:37:36;5.93;;;2.95;;
1446;SDS011;717;51.522;7.266;2023-05-27T14:40:05;5.43;;;3.13;;
1446;SDS011;717;51.522;7.266;2023-05-27T14:42:37;5.25;;;2.75;;
1446;SDS011;717;51.522;7.266;2023-05-27T14:45:06;7.72;;;3.22;;
1446;SDS011;717;51.522;7.266;2023-05-27T14:47:36;6.13;;;2.53;;
1446;SDS011;717;51.522;7.266;2023-05-27T14:50:05;6.40;;;3.03;;
1446;SDS011;717;51.522;7.266;2023-05-27T14:52:34;4.38;;;2.70;;
1446;SDS011;717;51.522;7.266;2023-05-27T14:55:04;6.47;;;3.13;;
1446;SDS011;717;51.522;7.266;2023-05-27T14:57:33;5.68;;;2.78;;
1446;SDS011;717;51.522;7.266;2023-05-27T15:00:05;6.65;;;3.30;;
1446;SDS011;717;51.522;7.266;2023-05-27T15:02:36;5.97;;;3.05;;
1446;SDS011;717;51.522;7.266;2023-05-27T15:05:05;6.07;;;3.30;;
1446;SDS011;717;51.522;7.266;2023-05-27T15:07:35;6.97;;;3.47;;
1446;SDS011;717;51.522;7.266;2023-05-27T15:10:05;6.25;;;3.20;;
1446;SDS011;717;51.522;7.266;2023-05-27T15:12:38;8.43;;;3.45;;
1446;SDS011;717;51.522;7.266;2023-05-27T15:15:11;5.13;;;2.85;;
1446;SDS011;717;51.522;7.266;2023-05-27T15:17:42;6.65;;;3.20;;
1446;SDS011;717;51.522;7.266;2023-05-27T15:20:11;8.90;;;3.58;;
1446;SDS011;717;51.522;7.266;2023-05-27T15:22:44;5.95;;;3.20;;
1446;SDS011;717;51.522;7.266;2023-05-27T15:25:14;6.55;;;3.03;;
1446;SDS011;717;51.522;7.266;2023-05-27T15:27:43;8.52;;;3.20;;
1446;SDS011;717;51.522;7.266;2023-05-27T15:30:14;6.15;;;2.90;;
1446;SDS011;717;51.522;7.266;2023-05-27T15:32:43;9.05;;;3.40;;
1446;SDS011;717;51.522;7.266;2023-05-27T15:35:15;6.15;;;3.15;;
1446;SDS011;717;51.522;7.266;2023-05-27T15:37:44;7.90;;;3.05;;